sensor_id;sensor_type;location;lat;lon;timestamp;P1;durP1;ratioP1;P2;durP2;ratioP2
39918;SDS011;25589;51.552;13.424;2023-07-02T00:01:40;3.47;;;2.00;;
39918;SDS011;25589;51.552;13.424;2023-07-02T00:04:06;2.05;;;1.77;;
39918;SDS011;25589;51.552;13.424;2023-07-02T00:06:33;2.83;;;2.10;;
39918;SDS011;25589;51.552;13.424;2023-07-02T00:09:05;2.40;;;2.00;;
39918;SDS011;25589;51.552;13.424;2023-07-02T00:11:31;2.13;;;1.73;;
39918;SDS011;25589;51.552;13.424;2023-07-02T00:13:57;2.22;;;2.00;;
39918;SDS011;25589;51.552;13.424;2023-07-02T00:16:22;3.60;;;1.92;;
39918;SDS011;25589;51.552;13.424;2023-07-02T00:18:48;3.22;;;2.00;;
39918;SDS011;25589;51.552;13.424;2023-07-02T00:21:17;2.22;;;1.85;;
39918;SDS011;25589;51.552;13.424;2023-07-02T00:23:46;4.00;;;2.00;;
39918;SDS011;25589;51.552;13.424;2023-07-02T00:26:12;2.63;;;2.05;;
39918;SDS011;25589;51.552;13.424;2023-07-02T00:28:38;2.75;;;1.77;;
39918;SDS011;25589;51.552;13.424;2023-07-02T00:31:03;2.20;;;1.67;;
39918;SDS011;25589;51.552;13.424;2023-07-02T00:33:29;1.83;;;1.67;;
39918;SDS011;25589;51.552;13.424;2023-07-02T00:35:56;3.75;;;2.03;;
39918;SDS011;25589;51.552;13.424;2023-07-02T00:38:22;2.13;;;1.52;;
39918;SDS011;25589;51.552;13.424;2023-07-02T00:40:48;5.65;;;2.10;;
39918;SDS011;25589;51.552;13.424;2023-07-02T00:43:14;3.67;;;1.63;;
39918;SDS011;25589;51.552;13.424;2023-07-02T00:45:39;2.45;;;1.73;;
39918;SDS011;25589;51.552;13.424;2023-07-02T00:48:05;3.65;;;2.13;;
39918;SDS011;25589;51.552;13.424;2023-07-02T00:50:31;2.00;;;1.70;;
39918;SDS011;25589;51.552;13.424;2023-07-02T00:52:57;2.67;;;2.03;;
39918;SDS011;25589;51.552;13.424;2023-07-02T00:55:23;3.67;;;1.95;;
39918;SDS011;25589;51.552;13.424;2023-07-02T00:57:49;2.97;;;1.70;;
39918;SDS011;25589;51.552;13.424;2023-07-02T01:00:15;3.05;;;1.70;;
39918;SDS011;25589;51.552;13.424;2023-07-02T01:02:41;3.42;;;2.05;;
39918;SDS011;25589;51.552;13.424;2023-07-02T01:05:16;3.42;;;2.05;;
39918;SDS011;25589;51.552;13.424;2023-07-02T01:07:41;3.90;;;1.92;;
39918;SDS011;25589;51.552;13.424;2023-07-02T01:10:07;2.80;;;1.85;;
39918;SDS011;25589;51.552;13.424;2023-07-02T01:12:33;3.08;;;1.67;;
39918;SDS011;25589;51.552;13.424;2023-07-02T01:15:02;2.85;;;1.83;;
39918;SDS011;25589;51.552;13.424;2023-07-02T01:17:30;3.63;;;1.60;;
39918;SDS011;25589;51.552;13.424;2023-07-02T01:20:05;2.75;;;2.00;;
39918;SDS011;25589;51.552;13.424;2023-07-02T01:22:36;3.30;;;1.90;;
39918;SDS011;25589;51.552;13.424;2023-07-02T01:25:03;2.50;;;2.00;;
39918;SDS011;25589;51.552;13.424;2023-07-02T01:27:30;3.55;;;2.17;;
39918;SDS011;25589;51.552;13.424;2023-07-02T01:29:57;2.60;;;2.17;;
39918;SDS011;25589;51.552;13.424;2023-07-02T01:32:22;3.22;;;1.85;;
39918;SDS011;25589;51.552;13.424;2023-07-02T01:34:49;2.92;;;1.67;;
39918;SDS011;25589;51.552;13.424;2023-07-02T01:37:18;3.00;;;2.30;;
39918;SDS011;25589;51.552;13.424;2023-07-02T01:39:44;6.45;;;2.58;;
39918;SDS011;25589;51.552;13.424;2023-07-02T01:42:14;4.35;;;2.17;;
39918;SDS011;25589;51.552;13.424;2023-07-02T01:44:42;2.88;;;2.25;;
39918;SDS011;25589;51.552;13.424;2023-07-02T01:47:08;3.08;;;2.25;;
39918;SDS011;25589;51.552;13.424;2023-07-02T01:49:34;2.40;;;2.20;;
39918;SDS011;25589;51.552;13.424;2023-07-02T01:52:01;4.93;;;2.30;;
39918;SDS011;25589;51.552;13.424;2023-07-02T01:54:27;4.75;;;2.35;;
39918;SDS011;25589;51.552;13.424;2023-07-02T01:56:53;3.33;;;2.35;;
39918;SDS011;25589;51.552;13.424;2023-07-02T01:59:20;7.10;;;2.45;;
39918;SDS011;25589;51.552;13.424;2023-07-02T02:01:46;2.42;;;2.17;;
39918;SDS011;25589;51.552;13.424;2023-07-02T02:04:11;4.05;;;2.22;;
39918;SDS011;25589;51.552;13.424;2023-07-02T02:06:37;4.50;;;2.30;;
39918;SDS011;25589;51.552;13.424;2023-07-02T02:09:04;2.95;;;2.55;;
39918;SDS011;25589;51.552;13.424;2023-07-02T02:11:30;3.30;;;2.30;;
39918;SDS011;25589;51.552;13.424;2023-07-02T02:13:56;4.22;;;2.15;;
39918;SDS011;25589;51.552;13.424;2023-07-02T02:16:23;4.78;;;2.53;;
39918;SDS011;25589;51.552;13.424;2023-07-02T02:18:49;2.67;;;2.40;;
39918;SDS011;25589;51.552;13.424;2023-07-02T02:21:19;4.90;;;2.40;;
39918;SDS011;25589;51.552;13.424;2023-07-02T02:23:45;3.53;;;2.55;;
39918;SDS011;25589;51.552;13.424;2023-07-02T02:26:11;4.05;;;2.70;;
39918;SDS011;25589;51.552;13.424;2023-07-02T02:28:37;3.35;;;2.20;;
39918;SDS011;25589;51.552;13.424;2023-07-02T02:31:03;3.80;;;2.20;;
39918;SDS011;25589;51.552;13.424;2023-07-02T02:33:29;3.20;;;2.38;;
39918;SDS011;25589;51.552;13.424;2023-07-02T02:35:56;2.75;;;2.42;;
39918;SDS011;25589;51.552;13.424;2023-07-02T02:38:22;2.45;;;2.25;;
39918;SDS011;25589;51.552;13.424;2023-07-02T02:40:48;4.45;;;2.40;;
39918;SDS011;25589;51.552;13.424;2023-07-02T02:43:17;6.93;;;2.78;;
39918;SDS011;25589;51.552;13.424;2023-07-02T02:45:44;4.32;;;2.50;;
39918;SDS011;25589;51.552;13.424;2023-07-02T02:48:10;2.45;;;2.10;;
39918;SDS011;25589;51.552;13.424;2023-07-02T02:50:36;6.07;;;2.75;;
39918;SDS011;25589;51.552;13.424;2023-07-02T02:53:06;2.40;;;2.20;;
39918;SDS011;25589;51.552;13.424;2023-07-02T02:55:37;3.42;;;2.47;;
39918;SDS011;25589;51.552;13.424;2023-07-02T02:58:03;3.95;;;2.75;;
39918;SDS011;25589;51.552;13.424;2023-07-02T03:00:29;2.70;;;2.28;;
39918;SDS011;25589;51.552;13.424;2023-07-02T03:02:55;4.10;;;3.33;;
39918;SDS011;25589;51.552;13.424;2023-07-02T03:05:21;2.75;;;2.53;;
39918;SDS011;25589;51.552;13.424;2023-07-02T03:07:47;3.10;;;2.53;;
39918;SDS011;25589;51.552;13.424;2023-07-02T03:10:13;3.00;;;2.35;;
39918;SDS011;25589;51.552;13.424;2023-07-02T03:12:39;6.32;;;3.00;;
39918;SDS011;25589;51.552;13.424;2023-07-02T03:15:04;3.80;;;2.83;;
39918;SDS011;25589;51.552;13.424;2023-07-02T03:17:30;4.15;;;2.78;;
39918;SDS011;25589;51.552;13.424;2023-07-02T03:19:56;2.80;;;2.35;;
39918;SDS011;25589;51.552;13.424;2023-07-02T03:22:22;2.88;;;2.58;;
39918;SDS011;25589;51.552;13.424;2023-07-02T03:24:47;2.50;;;2.30;;
39918;SDS011;25589;51.552;13.424;2023-07-02T03:27:13;5.32;;;2.53;;
39918;SDS011;25589;51.552;13.424;2023-07-02T03:29:38;4.20;;;2.47;;
39918;SDS011;25589;51.552;13.424;2023-07-02T03:32:04;2.95;;;2.63;;
39918;SDS011;25589;51.552;13.424;2023-07-02T03:34:30;2.90;;;2.60;;
39918;SDS011;25589;51.552;13.424;2023-07-02T03:36:56;4.55;;;2.72;;
39918;SDS011;25589;51.552;13.424;2023-07-02T03:39:21;3.53;;;2.38;;
39918;SDS011;25589;51.552;13.424;2023-07-02T03:41:47;4.30;;;2.60;;
39918;SDS011;25589;51.552;13.424;2023-07-02T03:44:13;4.03;;;2.50;;
39918;SDS011;25589;51.552;13.424;2023-07-02T03:46:38;5.00;;;2.65;;
39918;SDS011;25589;51.552;13.424;2023-07-02T03:49:04;2.85;;;2.30;;
39918;SDS011;25589;51.552;13.424;2023-07-02T03:51:30;4.68;;;2.20;;
39918;SDS011;25589;51.552;13.424;2023-07-02T03:53:57;5.38;;;2.63;;
39918;SDS011;25589;51.552;13.424;2023-07-02T03:56:23;4.22;;;2.60;;
39918;SDS011;25589;51.552;13.424;2023-07-02T03:58:49;3.55;;;2.38;;
39918;SDS011;25589;51.552;13.424;2023-07-02T04:01:15;3.45;;;2.22;;
39918;SDS011;25589;51.552;13.424;2023-07-02T04:03:42;2.65;;;2.30;;
39918;SDS011;25589;51.552;13.424;2023-07-02T04:06:14;3.38;;;2.15;;
39918;SDS011;25589;51.552;13.424;2023-07-02T04:08:40;2.70;;;2.50;;
39918;SDS011;25589;51.552;13.424;2023-07-02T04:11:06;2.80;;;2.50;;
39918;SDS011;25589;51.552;13.424;2023-07-02T04:13:31;3.53;;;2.42;;
39918;SDS011;25589;51.552;13.424;2023-07-02T04:15:57;2.47;;;2.28;;
39918;SDS011;25589;51.552;13.424;2023-07-02T04:18:23;4.40;;;2.40;;
39918;SDS011;25589;51.552;13.424;2023-07-02T04:20:48;2.90;;;2.35;;
39918;SDS011;25589;51.552;13.424;2023-07-02T04:23:14;2.70;;;2.35;;
39918;SDS011;25589;51.552;13.424;2023-07-02T04:25:39;2.55;;;2.35;;
39918;SDS011;25589;51.552;13.424;2023-07-02T04:28:05;3.17;;;2.40;;
39918;SDS011;25589;51.552;13.424;2023-07-02T04:30:30;3.28;;;2.60;;
39918;SDS011;25589;51.552;13.424;2023-07-02T04:32:56;2.38;;;2.17;;
39918;SDS011;25589;51.552;13.424;2023-07-02T04:35:21;3.55;;;2.30;;
39918;SDS011;25589;51.552;13.424;2023-07-02T04:37:47;4.32;;;2.70;;
39918;SDS011;25589;51.552;13.424;2023-07-02T04:40:12;3.00;;;2.50;;
39918;SDS011;25589;51.552;13.424;2023-07-02T04:42:39;2.95;;;2.35;;
39918;SDS011;25589;51.552;13.424;2023-07-02T04:45:12;2.50;;;2.25;;
39918;SDS011;25589;51.552;13.424;2023-07-02T04:47:40;3.55;;;2.50;;
39918;SDS011;25589;51.552;13.424;2023-07-02T04:50:06;2.53;;;2.33;;
39918;SDS011;25589;51.552;13.424;2023-07-02T04:52:32;6.15;;;2.85;;
39918;SDS011;25589;51.552;13.424;2023-07-02T04:54:58;6.43;;;2.90;;
39918;SDS011;25589;51.552;13.424;2023-07-02T04:57:23;3.67;;;2.72;;
39918;SDS011;25589;51.552;13.424;2023-07-02T04:59:49;3.85;;;2.70;;
39918;SDS011;25589;51.552;13.424;2023-07-02T05:02:14;4.63;;;2.80;;
39918;SDS011;25589;51.552;13.424;2023-07-02T05:04:40;6.10;;;2.75;;
39918;SDS011;25589;51.552;13.424;2023-07-02T05:07:05;3.33;;;2.90;;
39918;SDS011;25589;51.552;13.424;2023-07-02T05:09:31;3.28;;;2.70;;
39918;SDS011;25589;51.552;13.424;2023-07-02T05:11:57;5.43;;;2.97;;
39918;SDS011;25589;51.552;13.424;2023-07-02T05:14:23;5.65;;;2.90;;
39918;SDS011;25589;51.552;13.424;2023-07-02T05:16:48;5.28;;;3.03;;
39918;SDS011;25589;51.552;13.424;2023-07-02T05:19:14;4.50;;;2.78;;
39918;SDS011;25589;51.552;13.424;2023-07-02T05:21:40;5.20;;;3.05;;
39918;SDS011;25589;51.552;13.424;2023-07-02T05:24:07;3.35;;;2.97;;
39918;SDS011;25589;51.552;13.424;2023-07-02T05:26:33;4.95;;;3.15;;
39918;SDS011;25589;51.552;13.424;2023-07-02T05:28:59;5.43;;;2.42;;
39918;SDS011;25589;51.552;13.424;2023-07-02T05:31:25;3.20;;;2.90;;
39918;SDS011;25589;51.552;13.424;2023-07-02T05:33:50;3.20;;;2.75;;
39918;SDS011;25589;51.552;13.424;2023-07-02T05:36:16;3.50;;;2.63;;
39918;SDS011;25589;51.552;13.424;2023-07-02T05:38:42;5.15;;;3.33;;
39918;SDS011;25589;51.552;13.424;2023-07-02T05:41:07;3.85;;;2.72;;
39918;SDS011;25589;51.552;13.424;2023-07-02T05:43:33;11.73;;;3.20;;
39918;SDS011;25589;51.552;13.424;2023-07-02T05:45:58;6.22;;;2.67;;
39918;SDS011;25589;51.552;13.424;2023-07-02T05:48:27;4.65;;;2.28;;
39918;SDS011;25589;51.552;13.424;2023-07-02T05:50:53;4.00;;;2.55;;
39918;SDS011;25589;51.552;13.424;2023-07-02T05:53:20;3.83;;;2.50;;
39918;SDS011;25589;51.552;13.424;2023-07-02T05:55:45;3.58;;;2.47;;
39918;SDS011;25589;51.552;13.424;2023-07-02T05:58:12;6.97;;;2.67;;
39918;SDS011;25589;51.552;13.424;2023-07-02T06:00:37;3.63;;;2.50;;
39918;SDS011;25589;51.552;13.424;2023-07-02T06:03:04;3.38;;;2.50;;
39918;SDS011;25589;51.552;13.424;2023-07-02T06:05:30;3.10;;;2.10;;
39918;SDS011;25589;51.552;13.424;2023-07-02T06:07:55;2.20;;;2.00;;
39918;SDS011;25589;51.552;13.424;2023-07-02T06:10:21;2.88;;;2.33;;
39918;SDS011;25589;51.552;13.424;2023-07-02T06:12:46;4.88;;;1.83;;
39918;SDS011;25589;51.552;13.424;2023-07-02T06:15:12;4.20;;;2.45;;
39918;SDS011;25589;51.552;13.424;2023-07-02T06:17:37;4.25;;;2.20;;
39918;SDS011;25589;51.552;13.424;2023-07-02T06:20:03;1.95;;;1.70;;
39918;SDS011;25589;51.552;13.424;2023-07-02T06:22:30;4.10;;;2.05;;
39918;SDS011;25589;51.552;13.424;2023-07-02T06:24:55;2.08;;;1.98;;
39918;SDS011;25589;51.552;13.424;2023-07-02T06:27:21;3.15;;;2.25;;
39918;SDS011;25589;51.552;13.424;2023-07-02T06:29:46;3.45;;;1.83;;
39918;SDS011;25589;51.552;13.424;2023-07-02T06:32:12;2.63;;;2.00;;
39918;SDS011;25589;51.552;13.424;2023-07-02T06:34:38;3.17;;;2.00;;
39918;SDS011;25589;51.552;13.424;2023-07-02T06:37:04;4.88;;;1.88;;
39918;SDS011;25589;51.552;13.424;2023-07-02T06:39:30;2.40;;;2.20;;
39918;SDS011;25589;51.552;13.424;2023-07-02T06:41:55;3.00;;;2.35;;
39918;SDS011;25589;51.552;13.424;2023-07-02T06:44:27;3.30;;;2.30;;
39918;SDS011;25589;51.552;13.424;2023-07-02T06:46:53;5.13;;;2.10;;
39918;SDS011;25589;51.552;13.424;2023-07-02T06:49:18;2.17;;;1.88;;
39918;SDS011;25589;51.552;13.424;2023-07-02T06:51:44;3.00;;;2.20;;
39918;SDS011;25589;51.552;13.424;2023-07-02T06:54:10;3.03;;;2.08;;
39918;SDS011;25589;51.552;13.424;2023-07-02T06:56:36;3.38;;;1.80;;
39918;SDS011;25589;51.552;13.424;2023-07-02T06:59:01;2.88;;;1.90;;
39918;SDS011;25589;51.552;13.424;2023-07-02T07:01:28;2.60;;;1.95;;
39918;SDS011;25589;51.552;13.424;2023-07-02T07:03:53;2.75;;;2.13;;
39918;SDS011;25589;51.552;13.424;2023-07-02T07:06:19;2.35;;;2.05;;
39918;SDS011;25589;51.552;13.424;2023-07-02T07:08:45;3.38;;;2.08;;
39918;SDS011;25589;51.552;13.424;2023-07-02T07:11:11;3.63;;;2.22;;
39918;SDS011;25589;51.552;13.424;2023-07-02T07:13:36;3.95;;;2.17;;
39918;SDS011;25589;51.552;13.424;2023-07-02T07:16:02;3.38;;;2.20;;
39918;SDS011;25589;51.552;13.424;2023-07-02T07:18:28;2.10;;;1.90;;
39918;SDS011;25589;51.552;13.424;2023-07-02T07:20:53;2.20;;;2.00;;
39918;SDS011;25589;51.552;13.424;2023-07-02T07:23:19;4.22;;;2.03;;
39918;SDS011;25589;51.552;13.424;2023-07-02T07:25:44;3.25;;;2.25;;
39918;SDS011;25589;51.552;13.424;2023-07-02T07:28:10;5.07;;;2.05;;
39918;SDS011;25589;51.552;13.424;2023-07-02T07:30:42;2.65;;;2.03;;
39918;SDS011;25589;51.552;13.424;2023-07-02T07:33:08;4.22;;;2.00;;
39918;SDS011;25589;51.552;13.424;2023-07-02T07:35:33;2.58;;;1.92;;
39918;SDS011;25589;51.552;13.424;2023-07-02T07:37:59;4.47;;;2.00;;
39918;SDS011;25589;51.552;13.424;2023-07-02T07:40:24;4.88;;;2.20;;
39918;SDS011;25589;51.552;13.424;2023-07-02T07:42:50;2.83;;;1.80;;
39918;SDS011;25589;51.552;13.424;2023-07-02T07:45:15;3.78;;;2.00;;
39918;SDS011;25589;51.552;13.424;2023-07-02T07:47:41;5.82;;;2.08;;
39918;SDS011;25589;51.552;13.424;2023-07-02T07:50:07;4.47;;;2.00;;
39918;SDS011;25589;51.552;13.424;2023-07-02T07:52:38;3.22;;;2.15;;
39918;SDS011;25589;51.552;13.424;2023-07-02T07:55:05;2.30;;;2.10;;
39918;SDS011;25589;51.552;13.424;2023-07-02T07:57:31;3.03;;;1.98;;
39918;SDS011;25589;51.552;13.424;2023-07-02T07:59:57;3.63;;;2.00;;
39918;SDS011;25589;51.552;13.424;2023-07-02T08:02:22;6.22;;;2.20;;
39918;SDS011;25589;51.552;13.424;2023-07-02T08:04:48;4.45;;;2.20;;
39918;SDS011;25589;51.552;13.424;2023-07-02T08:07:14;2.55;;;1.90;;
39918;SDS011;25589;51.552;13.424;2023-07-02T08:09:40;2.25;;;1.90;;
39918;SDS011;25589;51.552;13.424;2023-07-02T08:12:06;3.17;;;1.70;;
39918;SDS011;25589;51.552;13.424;2023-07-02T08:14:32;5.07;;;2.22;;
39918;SDS011;25589;51.552;13.424;2023-07-02T08:17:00;2.63;;;2.15;;
39918;SDS011;25589;51.552;13.424;2023-07-02T08:19:25;3.90;;;2.30;;
39918;SDS011;25589;51.552;13.424;2023-07-02T08:21:51;5.40;;;2.35;;
39918;SDS011;25589;51.552;13.424;2023-07-02T08:24:17;4.22;;;2.17;;
39918;SDS011;25589;51.552;13.424;2023-07-02T08:26:42;2.28;;;2.10;;
39918;SDS011;25589;51.552;13.424;2023-07-02T08:29:09;3.05;;;2.40;;
39918;SDS011;25589;51.552;13.424;2023-07-02T08:31:36;3.97;;;2.90;;
39918;SDS011;25589;51.552;13.424;2023-07-02T08:34:01;2.65;;;2.17;;
39918;SDS011;25589;51.552;13.424;2023-07-02T08:36:27;2.60;;;2.38;;
39918;SDS011;25589;51.552;13.424;2023-07-02T08:38:53;3.13;;;2.38;;
39918;SDS011;25589;51.552;13.424;2023-07-02T08:41:20;3.20;;;2.10;;
39918;SDS011;25589;51.552;13.424;2023-07-02T08:43:46;3.92;;;2.47;;
39918;SDS011;25589;51.552;13.424;2023-07-02T08:46:14;4.50;;;2.45;;
39918;SDS011;25589;51.552;13.424;2023-07-02T08:48:40;5.28;;;2.78;;
39918;SDS011;25589;51.552;13.424;2023-07-02T08:51:06;3.03;;;2.47;;
39918;SDS011;25589;51.552;13.424;2023-07-02T08:53:32;3.47;;;2.70;;
39918;SDS011;25589;51.552;13.424;2023-07-02T08:56:02;7.10;;;2.78;;
39918;SDS011;25589;51.552;13.424;2023-07-02T08:58:28;4.35;;;3.05;;
39918;SDS011;25589;51.552;13.424;2023-07-02T09:01:10;3.38;;;2.60;;
39918;SDS011;25589;51.552;13.424;2023-07-02T09:03:38;4.00;;;2.97;;
39918;SDS011;25589;51.552;13.424;2023-07-02T09:06:05;3.10;;;2.38;;
39918;SDS011;25589;51.552;13.424;2023-07-02T09:08:31;3.55;;;2.67;;
39918;SDS011;25589;51.552;13.424;2023-07-02T09:13:48;4.47;;;2.72;;
39918;SDS011;25589;51.552;13.424;2023-07-02T09:16:30;5.65;;;2.45;;
39918;SDS011;25589;51.552;13.424;2023-07-02T09:19:02;2.40;;;2.20;;
39918;SDS011;25589;51.552;13.424;2023-07-02T09:21:42;3.65;;;2.38;;
39918;SDS011;25589;51.552;13.424;2023-07-02T09:24:18;4.88;;;2.88;;
39918;SDS011;25589;51.552;13.424;2023-07-02T09:29:18;4.00;;;2.60;;
39918;SDS011;25589;51.552;13.424;2023-07-02T09:31:53;4.55;;;2.53;;
39918;SDS011;25589;51.552;13.424;2023-07-02T09:34:19;2.55;;;2.35;;
39918;SDS011;25589;51.552;13.424;2023-07-02T09:36:44;3.90;;;2.65;;
39918;SDS011;25589;51.552;13.424;2023-07-02T09:39:17;2.78;;;2.30;;
39918;SDS011;25589;51.552;13.424;2023-07-02T09:41:44;3.53;;;2.58;;
39918;SDS011;25589;51.552;13.424;2023-07-02T09:44:14;3.65;;;2.20;;
39918;SDS011;25589;51.552;13.424;2023-07-02T09:46:41;2.47;;;1.73;;
39918;SDS011;25589;51.552;13.424;2023-07-02T09:49:11;5.38;;;1.80;;
39918;SDS011;25589;51.552;13.424;2023-07-02T09:51:39;2.88;;;1.85;;
39918;SDS011;25589;51.552;13.424;2023-07-02T09:54:06;2.83;;;1.95;;
39918;SDS011;25589;51.552;13.424;2023-07-02T09:56:32;4.20;;;2.00;;
39918;SDS011;25589;51.552;13.424;2023-07-02T09:58:58;2.08;;;1.60;;
39918;SDS011;25589;51.552;13.424;2023-07-02T10:01:23;2.50;;;1.70;;
39918;SDS011;25589;51.552;13.424;2023-07-02T10:03:49;4.15;;;2.38;;
39918;SDS011;25589;51.552;13.424;2023-07-02T10:06:15;2.25;;;2.05;;
39918;SDS011;25589;51.552;13.424;2023-07-02T10:08:40;2.08;;;1.88;;
39918;SDS011;25589;51.552;13.424;2023-07-02T10:11:16;1.90;;;1.70;;
39918;SDS011;25589;51.552;13.424;2023-07-02T10:13:42;1.73;;;1.50;;
39918;SDS011;25589;51.552;13.424;2023-07-02T10:16:07;4.28;;;1.70;;
39918;SDS011;25589;51.552;13.424;2023-07-02T10:18:33;4.05;;;1.70;;
39918;SDS011;25589;51.552;13.424;2023-07-02T10:20:59;9.30;;;3.13;;
39918;SDS011;25589;51.552;13.424;2023-07-02T10:23:34;5.72;;;3.13;;
39918;SDS011;25589;51.552;13.424;2023-07-02T10:26:10;6.25;;;3.67;;
39918;SDS011;25589;51.552;13.424;2023-07-02T10:28:38;8.05;;;4.50;;
39918;SDS011;25589;51.552;13.424;2023-07-02T10:31:04;7.70;;;3.97;;
39918;SDS011;25589;51.552;13.424;2023-07-02T10:33:29;10.05;;;4.07;;
39918;SDS011;25589;51.552;13.424;2023-07-02T10:35:55;8.73;;;4.22;;
39918;SDS011;25589;51.552;13.424;2023-07-02T10:38:24;9.80;;;4.35;;
39918;SDS011;25589;51.552;13.424;2023-07-02T10:40:54;10.27;;;4.30;;
39918;SDS011;25589;51.552;13.424;2023-07-02T10:45:57;9.07;;;4.20;;
39918;SDS011;25589;51.552;13.424;2023-07-02T10:48:25;9.88;;;4.50;;
39918;SDS011;25589;51.552;13.424;2023-07-02T10:50:50;8.95;;;4.05;;
39918;SDS011;25589;51.552;13.424;2023-07-02T10:53:16;8.43;;;4.53;;
39918;SDS011;25589;51.552;13.424;2023-07-02T10:55:43;11.70;;;4.82;;
39918;SDS011;25589;51.552;13.424;2023-07-02T10:58:09;10.88;;;4.75;;
39918;SDS011;25589;51.552;13.424;2023-07-02T11:00:49;8.25;;;5.05;;
39918;SDS011;25589;51.552;13.424;2023-07-02T11:03:22;7.22;;;4.32;;
39918;SDS011;25589;51.552;13.424;2023-07-02T11:05:50;6.88;;;4.47;;
39918;SDS011;25589;51.552;13.424;2023-07-02T11:08:16;7.70;;;4.50;;
39918;SDS011;25589;51.552;13.424;2023-07-02T11:10:42;7.47;;;4.80;;
39918;SDS011;25589;51.552;13.424;2023-07-02T11:13:18;8.95;;;4.13;;
39918;SDS011;25589;51.552;13.424;2023-07-02T11:15:45;8.50;;;4.72;;
39918;SDS011;25589;51.552;13.424;2023-07-02T11:18:12;9.52;;;4.78;;
39918;SDS011;25589;51.552;13.424;2023-07-02T11:20:39;7.88;;;4.57;;
39918;SDS011;25589;51.552;13.424;2023-07-02T11:23:19;10.07;;;4.78;;
39918;SDS011;25589;51.552;13.424;2023-07-02T11:25:54;9.65;;;4.80;;
39918;SDS011;25589;51.552;13.424;2023-07-02T11:28:27;8.27;;;4.43;;
39918;SDS011;25589;51.552;13.424;2023-07-02T11:30:54;9.23;;;3.92;;
39918;SDS011;25589;51.552;13.424;2023-07-02T11:33:20;11.60;;;4.50;;
39918;SDS011;25589;51.552;13.424;2023-07-02T11:36:03;6.60;;;4.35;;
39918;SDS011;25589;51.552;13.424;2023-07-02T11:38:29;7.28;;;4.55;;
39918;SDS011;25589;51.552;13.424;2023-07-02T11:40:55;5.95;;;4.30;;
39918;SDS011;25589;51.552;13.424;2023-07-02T11:43:21;6.00;;;4.30;;
39918;SDS011;25589;51.552;13.424;2023-07-02T11:45:46;8.82;;;3.95;;
39918;SDS011;25589;51.552;13.424;2023-07-02T11:48:12;9.85;;;4.88;;
39918;SDS011;25589;51.552;13.424;2023-07-02T11:50:38;9.32;;;4.78;;
39918;SDS011;25589;51.552;13.424;2023-07-02T11:53:03;5.95;;;4.35;;
39918;SDS011;25589;51.552;13.424;2023-07-02T11:55:29;8.48;;;3.92;;
39918;SDS011;25589;51.552;13.424;2023-07-02T11:57:54;7.05;;;4.15;;
39918;SDS011;25589;51.552;13.424;2023-07-02T12:00:20;6.53;;;4.57;;
39918;SDS011;25589;51.552;13.424;2023-07-02T12:02:45;7.70;;;4.00;;
39918;SDS011;25589;51.552;13.424;2023-07-02T12:05:11;5.82;;;4.50;;
39918;SDS011;25589;51.552;13.424;2023-07-02T12:07:37;6.40;;;4.05;;
39918;SDS011;25589;51.552;13.424;2023-07-02T12:10:02;8.38;;;4.32;;
39918;SDS011;25589;51.552;13.424;2023-07-02T12:12:28;6.97;;;4.20;;
39918;SDS011;25589;51.552;13.424;2023-07-02T12:14:53;6.18;;;4.25;;
39918;SDS011;25589;51.552;13.424;2023-07-02T12:17:19;6.80;;;4.80;;
39918;SDS011;25589;51.552;13.424;2023-07-02T12:19:44;6.22;;;4.50;;
39918;SDS011;25589;51.552;13.424;2023-07-02T12:22:10;9.93;;;4.38;;
39918;SDS011;25589;51.552;13.424;2023-07-02T12:24:36;9.10;;;4.78;;
39918;SDS011;25589;51.552;13.424;2023-07-02T12:27:02;10.05;;;4.95;;
39918;SDS011;25589;51.552;13.424;2023-07-02T12:29:27;8.48;;;4.75;;
39918;SDS011;25589;51.552;13.424;2023-07-02T12:31:53;9.60;;;4.68;;
39918;SDS011;25589;51.552;13.424;2023-07-02T12:34:18;9.40;;;5.30;;
39918;SDS011;25589;51.552;13.424;2023-07-02T12:36:44;15.40;;;5.30;;
39918;SDS011;25589;51.552;13.424;2023-07-02T12:39:09;6.65;;;4.47;;
39918;SDS011;25589;51.552;13.424;2023-07-02T12:41:35;9.45;;;5.30;;
39918;SDS011;25589;51.552;13.424;2023-07-02T12:44:00;9.13;;;4.65;;
39918;SDS011;25589;51.552;13.424;2023-07-02T12:46:26;8.77;;;4.90;;
39918;SDS011;25589;51.552;13.424;2023-07-02T12:48:52;9.15;;;5.20;;
39918;SDS011;25589;51.552;13.424;2023-07-02T12:51:17;9.40;;;4.88;;
39918;SDS011;25589;51.552;13.424;2023-07-02T12:53:43;8.35;;;5.20;;
39918;SDS011;25589;51.552;13.424;2023-07-02T12:56:08;8.05;;;4.90;;
39918;SDS011;25589;51.552;13.424;2023-07-02T12:58:34;8.45;;;5.28;;
39918;SDS011;25589;51.552;13.424;2023-07-02T13:01:00;8.65;;;5.10;;
39918;SDS011;25589;51.552;13.424;2023-07-02T13:03:25;8.07;;;5.20;;
39918;SDS011;25589;51.552;13.424;2023-07-02T13:05:51;7.85;;;5.07;;
39918;SDS011;25589;51.552;13.424;2023-07-02T13:08:16;11.57;;;5.70;;
39918;SDS011;25589;51.552;13.424;2023-07-02T13:10:42;10.25;;;5.35;;
39918;SDS011;25589;51.552;13.424;2023-07-02T13:13:08;10.07;;;5.65;;
39918;SDS011;25589;51.552;13.424;2023-07-02T13:15:34;8.57;;;5.13;;
39918;SDS011;25589;51.552;13.424;2023-07-02T13:18:00;8.55;;;5.38;;
39918;SDS011;25589;51.552;13.424;2023-07-02T13:20:26;11.90;;;5.68;;
39918;SDS011;25589;51.552;13.424;2023-07-02T13:22:52;7.95;;;5.35;;
39918;SDS011;25589;51.552;13.424;2023-07-02T13:25:17;11.75;;;5.28;;
39918;SDS011;25589;51.552;13.424;2023-07-02T13:27:43;11.57;;;5.15;;
39918;SDS011;25589;51.552;13.424;2023-07-02T13:30:08;10.65;;;5.72;;
39918;SDS011;25589;51.552;13.424;2023-07-02T13:32:35;7.93;;;5.00;;
39918;SDS011;25589;51.552;13.424;2023-07-02T13:35:01;7.60;;;4.47;;
39918;SDS011;25589;51.552;13.424;2023-07-02T13:37:26;9.48;;;5.13;;
39918;SDS011;25589;51.552;13.424;2023-07-02T13:39:53;9.52;;;5.32;;
39918;SDS011;25589;51.552;13.424;2023-07-02T13:42:18;10.07;;;5.22;;
39918;SDS011;25589;51.552;13.424;2023-07-02T13:44:44;10.13;;;5.45;;
39918;SDS011;25589;51.552;13.424;2023-07-02T13:47:10;12.30;;;5.03;;
39918;SDS011;25589;51.552;13.424;2023-07-02T13:49:36;10.75;;;5.80;;
39918;SDS011;25589;51.552;13.424;2023-07-02T13:52:01;8.18;;;5.05;;
39918;SDS011;25589;51.552;13.424;2023-07-02T13:54:27;10.55;;;5.68;;
39918;SDS011;25589;51.552;13.424;2023-07-02T13:56:53;13.32;;;5.35;;
39918;SDS011;25589;51.552;13.424;2023-07-02T13:59:19;10.75;;;5.90;;
39918;SDS011;25589;51.552;13.424;2023-07-02T14:01:45;10.40;;;5.65;;
39918;SDS011;25589;51.552;13.424;2023-07-02T14:04:11;8.98;;;5.45;;
39918;SDS011;25589;51.552;13.424;2023-07-02T14:06:37;13.02;;;5.65;;
39918;SDS011;25589;51.552;13.424;2023-07-02T14:09:03;8.13;;;5.28;;
39918;SDS011;25589;51.552;13.424;2023-07-02T14:11:29;13.13;;;5.80;;
39918;SDS011;25589;51.552;13.424;2023-07-02T14:13:55;9.30;;;5.63;;
39918;SDS011;25589;51.552;13.424;2023-07-02T14:16:20;10.50;;;5.60;;
39918;SDS011;25589;51.552;13.424;2023-07-02T14:18:47;9.23;;;5.95;;
39918;SDS011;25589;51.552;13.424;2023-07-02T14:21:13;13.70;;;6.53;;
39918;SDS011;25589;51.552;13.424;2023-07-02T14:23:38;12.25;;;6.25;;
39918;SDS011;25589;51.552;13.424;2023-07-02T14:26:04;11.35;;;5.72;;
39918;SDS011;25589;51.552;13.424;2023-07-02T14:28:30;10.45;;;6.03;;
39918;SDS011;25589;51.552;13.424;2023-07-02T14:30:56;9.52;;;5.95;;
39918;SDS011;25589;51.552;13.424;2023-07-02T14:33:23;11.93;;;5.75;;
39918;SDS011;25589;51.552;13.424;2023-07-02T14:35:49;12.93;;;6.85;;
39918;SDS011;25589;51.552;13.424;2023-07-02T14:38:15;9.73;;;6.18;;